sensor_id;sensor_type;location;lat;lon;timestamp;temperature;humidity
45765;DHT22;31474;45.332;10.230;2023-09-12T00:00:56;23.70;99.90
45765;DHT22;31474;45.332;10.230;2023-09-12T00:03:23;23.60;99.90
45765;DHT22;31474;45.332;10.230;2023-09-12T00:05:56;23.70;99.90
45765;DHT22;31474;45.332;10.230;2023-09-12T00:08:22;23.70;99.90
45765;DHT22;31474;45.332;10.230;2023-09-12T00:11:07;23.70;99.90
45765;DHT22;31474;45.332;10.230;2023-09-12T00:13:37;23.70;99.90
45765;DHT22;31474;45.332;10.230;2023-09-12T00:16:03;23.60;99.90
45765;DHT22;31474;45.332;10.230;2023-09-12T00:18:30;23.50;99.90
45765;DHT22;31474;45.332;10.230;2023-09-12T00:20:56;23.50;99.90
45765;DHT22;31474;45.332;10.230;2023-09-12T00:23:22;23.50;99.90
45765;DHT22;31474;45.332;10.230;2023-09-12T00:25:50;23.50;99.90
45765;DHT22;31474;45.332;10.230;2023-09-12T00:28:17;23.40;99.90
45765;DHT22;31474;45.332;10.230;2023-09-12T00:30:42;23.40;99.90
45765;DHT22;31474;45.332;10.230;2023-09-12T00:33:08;23.30;99.90
45765;DHT22;31474;45.332;10.230;2023-09-12T00:35:34;23.30;99.90
45765;DHT22;31474;45.332;10.230;2023-09-12T00:37:59;23.40;99.90
45765;DHT22;31474;45.332;10.230;2023-09-12T00:40:25;23.30;99.90
45765;DHT22;31474;45.332;10.230;2023-09-12T00:42:51;23.40;99.90
45765;DHT22;31474;45.332;10.230;2023-09-12T00:45:16;23.40;99.90
45765;DHT22;31474;45.332;10.230;2023-09-12T00:47:42;23.50;99.90
45765;DHT22;31474;45.332;10.230;2023-09-12T00:50:09;23.50;99.90
45765;DHT22;31474;45.332;10.230;2023-09-12T00:52:36;23.50;99.90
45765;DHT22;31474;45.332;10.230;2023-09-12T00:55:03;23.50;99.90
45765;DHT22;31474;45.332;10.230;2023-09-12T00:57:30;23.50;99.90
45765;DHT22;31474;45.332;10.230;2023-09-12T00:59:57;23.50;99.90
45765;DHT22;31474;45.332;10.230;2023-09-12T01:02:24;23.40;99.90
45765;DHT22;31474;45.332;10.230;2023-09-12T01:04:50;23.30;99.90
45765;DHT22;31474;45.332;10.230;2023-09-12T01:07:16;23.40;99.90
45765;DHT22;31474;45.332;10.230;2023-09-12T01:09:42;23.40;99.90
45765;DHT22;31474;45.332;10.230;2023-09-12T01:12:08;23.40;99.90
45765;DHT22;31474;45.332;10.230;2023-09-12T01:14:34;23.30;99.90
45765;DHT22;31474;45.332;10.230;2023-09-12T01:17:01;23.20;99.90
45765;DHT22;31474;45.332;10.230;2023-09-12T01:19:27;23.10;99.90
45765;DHT22;31474;45.332;10.230;2023-09-12T01:27:41;23.10;99.90
45765;DHT22;31474;45.332;10.230;2023-09-12T01:30:10;23.10;99.90
45765;DHT22;31474;45.332;10.230;2023-09-12T01:32:36;23.10;99.90
45765;DHT22;31474;45.332;10.230;2023-09-12T01:35:03;23.10;99.90
45765;DHT22;31474;45.332;10.230;2023-09-12T01:37:32;23.10;99.90
45765;DHT22;31474;45.332;10.230;2023-09-12T01:39:58;23.10;99.90
45765;DHT22;31474;45.332;10.230;2023-09-12T01:42:26;23.00;99.90
45765;DHT22;31474;45.332;10.230;2023-09-12T01:44:55;23.00;99.90
45765;DHT22;31474;45.332;10.230;2023-09-12T01:47:23;23.00;99.90
45765;DHT22;31474;45.332;10.230;2023-09-12T01:49:52;23.00;99.90
45765;DHT22;31474;45.332;10.230;2023-09-12T01:52:20;22.90;99.90
45765;DHT22;31474;45.332;10.230;2023-09-12T01:54:47;23.00;99.90
45765;DHT22;31474;45.332;10.230;2023-09-12T01:57:13;23.00;99.90
45765;DHT22;31474;45.332;10.230;2023-09-12T01:59:40;22.90;99.90
45765;DHT22;31474;45.332;10.230;2023-09-12T02:02:05;22.90;99.90
45765;DHT22;31474;45.332;10.230;2023-09-12T02:04:32;22.90;99.90
45765;DHT22;31474;45.332;10.230;2023-09-12T02:06:58;22.90;99.90
45765;DHT22;31474;45.332;10.230;2023-09-12T02:09:24;22.80;99.90
45765;DHT22;31474;45.332;10.230;2023-09-12T02:11:51;22.80;99.90
45765;DHT22;31474;45.332;10.230;2023-09-12T02:14:16;22.80;99.90
45765;DHT22;31474;45.332;10.230;2023-09-12T02:16:44;22.80;99.90
45765;DHT22;31474;45.332;10.230;2023-09-12T02:19:10;22.80;99.90
45765;DHT22;31474;45.332;10.230;2023-09-12T02:21:35;22.80;99.90
45765;DHT22;31474;45.332;10.230;2023-09-12T02:24:01;22.80;99.90
45765;DHT22;31474;45.332;10.230;2023-09-12T02:26:27;22.80;99.90
45765;DHT22;31474;45.332;10.230;2023-09-12T02:28:52;22.70;99.90
45765;DHT22;31474;45.332;10.230;2023-09-12T02:31:18;22.70;99.90
45765;DHT22;31474;45.332;10.230;2023-09-12T02:33:44;22.70;99.90
45765;DHT22;31474;45.332;10.230;2023-09-12T02:36:10;22.60;99.90
45765;DHT22;31474;45.332;10.230;2023-09-12T02:38:36;22.70;99.90
45765;DHT22;31474;45.332;10.230;2023-09-12T02:41:01;22.60;99.90
45765;DHT22;31474;45.332;10.230;2023-09-12T02:43:28;22.60;99.90
45765;DHT22;31474;45.332;10.230;2023-09-12T02:45:54;22.60;99.90
45765;DHT22;31474;45.332;10.230;2023-09-12T02:48:19;22.60;99.90
45765;DHT22;31474;45.332;10.230;2023-09-12T02:50:45;22.60;99.90
45765;DHT22;31474;45.332;10.230;2023-09-12T02:53:11;22.60;99.90
45765;DHT22;31474;45.332;10.230;2023-09-12T02:55:39;22.60;99.90
45765;DHT22;31474;45.332;10.230;2023-09-12T02:58:06;22.60;99.90
45765;DHT22;31474;45.332;10.230;2023-09-12T03:00:32;22.50;99.90
45765;DHT22;31474;45.332;10.230;2023-09-12T03:02:57;22.50;99.90
45765;DHT22;31474;45.332;10.230;2023-09-12T03:05:23;22.40;99.90
45765;DHT22;31474;45.332;10.230;2023-09-12T03:07:49;22.40;99.90
45765;DHT22;31474;45.332;10.230;2023-09-12T03:10:14;22.40;99.90
45765;DHT22;31474;45.332;10.230;2023-09-12T03:12:40;22.40;99.90
45765;DHT22;31474;45.332;10.230;2023-09-12T03:15:06;22.40;99.90
45765;DHT22;31474;45.332;10.230;2023-09-12T03:17:32;22.40;99.90
45765;DHT22;31474;45.332;10.230;2023-09-12T03:19:58;22.40;99.90
45765;DHT22;31474;45.332;10.230;2023-09-12T03:22:23;22.40;99.90
45765;DHT22;31474;45.332;10.230;2023-09-12T03:24:49;22.40;99.90
45765;DHT22;31474;45.332;10.230;2023-09-12T03:27:15;22.30;99.90
45765;DHT22;31474;45.332;10.230;2023-09-12T03:29:41;22.30;99.90
45765;DHT22;31474;45.332;10.230;2023-09-12T03:32:06;22.30;99.90
45765;DHT22;31474;45.332;10.230;2023-09-12T03:34:32;22.30;99.90
45765;DHT22;31474;45.332;10.230;2023-09-12T03:36:57;22.30;99.90
45765;DHT22;31474;45.332;10.230;2023-09-12T03:39:23;22.30;99.90
45765;DHT22;31474;45.332;10.230;2023-09-12T03:41:49;22.30;99.90
45765;DHT22;31474;45.332;10.230;2023-09-12T03:44:15;22.20;99.90
45765;DHT22;31474;45.332;10.230;2023-09-12T03:46:40;22.20;99.90
45765;DHT22;31474;45.332;10.230;2023-09-12T03:49:06;22.10;99.90
45765;DHT22;31474;45.332;10.230;2023-09-12T03:51:33;22.10;99.90
45765;DHT22;31474;45.332;10.230;2023-09-12T03:54:00;22.00;99.90
45765;DHT22;31474;45.332;10.230;2023-09-12T03:56:25;22.00;99.90
45765;DHT22;31474;45.332;10.230;2023-09-12T03:58:51;22.00;99.90
45765;DHT22;31474;45.332;10.230;2023-09-12T04:01:17;21.90;99.90
45765;DHT22;31474;45.332;10.230;2023-09-12T04:03:43;21.90;99.90
45765;DHT22;31474;45.332;10.230;2023-09-12T04:06:12;21.90;99.90
45765;DHT22;31474;45.332;10.230;2023-09-12T04:08:38;21.90;99.90
45765;DHT22;31474;45.332;10.230;2023-09-12T04:11:03;21.80;99.90
45765;DHT22;31474;45.332;10.230;2023-09-12T04:13:29;21.80;99.90
45765;DHT22;31474;45.332;10.230;2023-09-12T04:15:56;21.90;99.90
45765;DHT22;31474;45.332;10.230;2023-09-12T04:18:21;21.80;99.90
45765;DHT22;31474;45.332;10.230;2023-09-12T04:20:47;21.80;99.90
45765;DHT22;31474;45.332;10.230;2023-09-12T04:23:12;21.80;99.90
45765;DHT22;31474;45.332;10.230;2023-09-12T04:25:42;21.80;99.90
45765;DHT22;31474;45.332;10.230;2023-09-12T04:28:07;21.80;99.90
45765;DHT22;31474;45.332;10.230;2023-09-12T04:30:33;21.80;99.90
45765;DHT22;31474;45.332;10.230;2023-09-12T04:33:00;21.80;99.90
45765;DHT22;31474;45.332;10.230;2023-09-12T04:35:26;21.80;99.90
45765;DHT22;31474;45.332;10.230;2023-09-12T04:37:52;21.70;99.90
45765;DHT22;31474;45.332;10.230;2023-09-12T04:40:17;21.80;99.90
45765;DHT22;31474;45.332;10.230;2023-09-12T04:42:43;21.80;99.90
45765;DHT22;31474;45.332;10.230;2023-09-12T04:45:09;21.80;99.90
45765;DHT22;31474;45.332;10.230;2023-09-12T04:47:35;21.80;99.90
45765;DHT22;31474;45.332;10.230;2023-09-12T04:50:00;21.80;99.90
45765;DHT22;31474;45.332;10.230;2023-09-12T04:52:27;21.70;99.90
45765;DHT22;31474;45.332;10.230;2023-09-12T04:54:52;21.70;99.90
45765;DHT22;31474;45.332;10.230;2023-09-12T04:57:18;21.70;99.90
45765;DHT22;31474;45.332;10.230;2023-09-12T04:59:44;21.70;99.90
45765;DHT22;31474;45.332;10.230;2023-09-12T05:02:09;21.70;99.90
45765;DHT22;31474;45.332;10.230;2023-09-12T05:04:35;21.70;99.90
45765;DHT22;31474;45.332;10.230;2023-09-12T05:07:01;21.70;99.90
45765;DHT22;31474;45.332;10.230;2023-09-12T05:09:26;21.70;99.90
45765;DHT22;31474;45.332;10.230;2023-09-12T05:11:52;21.70;99.90
45765;DHT22;31474;45.332;10.230;2023-09-12T05:14:17;21.70;99.90
45765;DHT22;31474;45.332;10.230;2023-09-12T05:16:43;21.70;99.90
45765;DHT22;31474;45.332;10.230;2023-09-12T05:19:08;21.70;99.90
45765;DHT22;31474;45.332;10.230;2023-09-12T05:21:34;21.60;99.90
45765;DHT22;31474;45.332;10.230;2023-09-12T05:24:00;21.60;99.90
45765;DHT22;31474;45.332;10.230;2023-09-12T05:26:25;21.60;99.90
45765;DHT22;31474;45.332;10.230;2023-09-12T05:28:51;21.60;99.90
45765;DHT22;31474;45.332;10.230;2023-09-12T05:31:18;21.70;99.90
45765;DHT22;31474;45.332;10.230;2023-09-12T05:33:43;21.70;99.90
45765;DHT22;31474;45.332;10.230;2023-09-12T05:36:09;21.80;99.90
45765;DHT22;31474;45.332;10.230;2023-09-12T05:38:35;21.80;99.90
45765;DHT22;31474;45.332;10.230;2023-09-12T05:41:00;21.90;99.90
45765;DHT22;31474;45.332;10.230;2023-09-12T05:43:26;22.00;99.90
45765;DHT22;31474;45.332;10.230;2023-09-12T05:45:52;22.00;99.90
45765;DHT22;31474;45.332;10.230;2023-09-12T05:48:18;22.10;99.90
45765;DHT22;31474;45.332;10.230;2023-09-12T05:50:43;22.20;99.90
45765;DHT22;31474;45.332;10.230;2023-09-12T05:53:10;22.20;99.90
45765;DHT22;31474;45.332;10.230;2023-09-12T05:55:36;22.30;99.90
45765;DHT22;31474;45.332;10.230;2023-09-12T05:58:02;22.40;99.90
45765;DHT22;31474;45.332;10.230;2023-09-12T06:00:31;22.40;99.90
45765;DHT22;31474;45.332;10.230;2023-09-12T06:02:57;22.60;99.90
45765;DHT22;31474;45.332;10.230;2023-09-12T06:05:23;22.70;99.90
45765;DHT22;31474;45.332;10.230;2023-09-12T06:07:49;22.80;99.90
45765;DHT22;31474;45.332;10.230;2023-09-12T06:10:14;22.80;99.90
45765;DHT22;31474;45.332;10.230;2023-09-12T06:12:40;22.90;99.90
45765;DHT22;31474;45.332;10.230;2023-09-12T06:15:06;23.00;99.90
45765;DHT22;31474;45.332;10.230;2023-09-12T06:17:32;23.10;99.90
45765;DHT22;31474;45.332;10.230;2023-09-12T06:19:57;23.20;99.90
45765;DHT22;31474;45.332;10.230;2023-09-12T06:22:23;23.30;99.90
45765;DHT22;31474;45.332;10.230;2023-09-12T06:24:52;23.40;99.90
45765;DHT22;31474;45.332;10.230;2023-09-12T06:27:18;23.40;99.90
45765;DHT22;31474;45.332;10.230;2023-09-12T06:29:45;23.50;99.90
45765;DHT22;31474;45.332;10.230;2023-09-12T06:32:17;23.50;99.90
45765;DHT22;31474;45.332;10.230;2023-09-12T06:34:42;23.60;99.90
45765;DHT22;31474;45.332;10.230;2023-09-12T06:37:10;23.60;99.90
45765;DHT22;31474;45.332;10.230;2023-09-12T06:39:35;23.70;99.90
45765;DHT22;31474;45.332;10.230;2023-09-12T06:42:01;23.70;99.90
45765;DHT22;31474;45.332;10.230;2023-09-12T06:44:27;23.80;99.90
45765;DHT22;31474;45.332;10.230;2023-09-12T06:46:53;23.80;99.90
45765;DHT22;31474;45.332;10.230;2023-09-12T06:49:18;23.90;99.90
45765;DHT22;31474;45.332;10.230;2023-09-12T06:51:44;24.00;99.90
45765;DHT22;31474;45.332;10.230;2023-09-12T06:54:10;24.00;99.90
45765;DHT22;31474;45.332;10.230;2023-09-12T06:56:35;24.10;99.90
45765;DHT22;31474;45.332;10.230;2023-09-12T06:59:04;24.20;99.90
45765;DHT22;31474;45.332;10.230;2023-09-12T07:01:30;24.20;99.90
45765;DHT22;31474;45.332;10.230;2023-09-12T07:03:56;24.30;99.90
45765;DHT22;31474;45.332;10.230;2023-09-12T07:06:22;24.40;99.90
45765;DHT22;31474;45.332;10.230;2023-09-12T07:08:48;24.40;99.90
45765;DHT22;31474;45.332;10.230;2023-09-12T07:11:14;24.40;99.90
45765;DHT22;31474;45.332;10.230;2023-09-12T07:13:39;24.50;99.90
45765;DHT22;31474;45.332;10.230;2023-09-12T07:16:05;24.60;99.90
45765;DHT22;31474;45.332;10.230;2023-09-12T07:18:31;24.80;99.90
45765;DHT22;31474;45.332;10.230;2023-09-12T07:21:02;25.10;99.90
45765;DHT22;31474;45.332;10.230;2023-09-12T07:23:28;25.30;99.90
45765;DHT22;31474;45.332;10.230;2023-09-12T07:25:55;25.40;99.90
45765;DHT22;31474;45.332;10.230;2023-09-12T07:28:23;25.50;99.90
45765;DHT22;31474;45.332;10.230;2023-09-12T07:30:49;25.60;99.90
45765;DHT22;31474;45.332;10.230;2023-09-12T07:33:15;25.70;99.90
45765;DHT22;31474;45.332;10.230;2023-09-12T07:35:40;25.90;99.90
45765;DHT22;31474;45.332;10.230;2023-09-12T07:38:06;26.00;99.90
45765;DHT22;31474;45.332;10.230;2023-09-12T07:40:32;26.30;99.90
45765;DHT22;31474;45.332;10.230;2023-09-12T07:42:57;26.30;99.90
45765;DHT22;31474;45.332;10.230;2023-09-12T07:45:23;26.40;99.90
45765;DHT22;31474;45.332;10.230;2023-09-12T07:47:49;26.30;99.90
45765;DHT22;31474;45.332;10.230;2023-09-12T07:50:14;26.20;99.90
45765;DHT22;31474;45.332;10.230;2023-09-12T07:52:40;26.20;99.90
45765;DHT22;31474;45.332;10.230;2023-09-12T07:55:07;26.30;99.90
45765;DHT22;31474;45.332;10.230;2023-09-12T07:57:33;26.50;99.90
45765;DHT22;31474;45.332;10.230;2023-09-12T08:00:00;26.70;99.90
45765;DHT22;31474;45.332;10.230;2023-09-12T08:02:25;26.80;99.90
45765;DHT22;31474;45.332;10.230;2023-09-12T08:04:51;26.80;99.90
45765;DHT22;31474;45.332;10.230;2023-09-12T08:07:19;26.70;99.90
45765;DHT22;31474;45.332;10.230;2023-09-12T08:09:52;26.80;99.90
45765;DHT22;31474;45.332;10.230;2023-09-12T08:12:19;26.90;99.90
45765;DHT22;31474;45.332;10.230;2023-09-12T08:14:45;27.00;99.90
45765;DHT22;31474;45.332;10.230;2023-09-12T08:17:11;27.20;99.90
45765;DHT22;31474;45.332;10.230;2023-09-12T08:19:37;27.30;99.90
45765;DHT22;31474;45.332;10.230;2023-09-12T08:22:03;27.50;99.90
45765;DHT22;31474;45.332;10.230;2023-09-12T08:24:29;27.70;99.90
45765;DHT22;31474;45.332;10.230;2023-09-12T08:26:54;27.90;99.90
45765;DHT22;31474;45.332;10.230;2023-09-12T08:29:20;27.90;99.90
45765;DHT22;31474;45.332;10.230;2023-09-12T08:31:46;27.90;99.90
45765;DHT22;31474;45.332;10.230;2023-09-12T08:34:15;27.80;99.90
45765;DHT22;31474;45.332;10.230;2023-09-12T08:36:40;27.90;99.90
45765;DHT22;31474;45.332;10.230;2023-09-12T08:39:06;28.00;99.90
45765;DHT22;31474;45.332;10.230;2023-09-12T08:41:34;28.10;99.90
45765;DHT22;31474;45.332;10.230;2023-09-12T08:44:01;28.20;99.90
45765;DHT22;31474;45.332;10.230;2023-09-12T08:46:27;28.30;99.90
45765;DHT22;31474;45.332;10.230;2023-09-12T08:48:55;28.10;99.90
45765;DHT22;31474;45.332;10.230;2023-09-12T08:51:22;28.30;99.90
45765;DHT22;31474;45.332;10.230;2023-09-12T08:53:50;28.30;99.90
45765;DHT22;31474;45.332;10.230;2023-09-12T08:56:16;28.30;99.90
45765;DHT22;31474;45.332;10.230;2023-09-12T08:58:43;28.40;99.90
45765;DHT22;31474;45.332;10.230;2023-09-12T09:01:10;28.30;99.90
45765;DHT22;31474;45.332;10.230;2023-09-12T09:03:39;28.30;99.90
45765;DHT22;31474;45.332;10.230;2023-09-12T09:06:08;28.30;99.90
45765;DHT22;31474;45.332;10.230;2023-09-12T09:08:34;28.40;99.90
45765;DHT22;31474;45.332;10.230;2023-09-12T09:11:01;28.30;99.90
45765;DHT22;31474;45.332;10.230;2023-09-12T09:13:29;28.40;99.90
45765;DHT22;31474;45.332;10.230;2023-09-12T09:16:17;28.30;99.90
45765;DHT22;31474;45.332;10.230;2023-09-12T09:21:25;28.70;99.90
45765;DHT22;31474;45.332;10.230;2023-09-12T09:23:52;28.70;99.90
45765;DHT22;31474;45.332;10.230;2023-09-12T09:26:18;28.70;99.90
45765;DHT22;31474;45.332;10.230;2023-09-12T09:28:44;28.80;99.90
45765;DHT22;31474;45.332;10.230;2023-09-12T09:31:11;28.80;99.90
45765;DHT22;31474;45.332;10.230;2023-09-12T09:33:39;28.80;99.90
45765;DHT22;31474;45.332;10.230;2023-09-12T09:36:07;28.80;99.90
45765;DHT22;31474;45.332;10.230;2023-09-12T09:38:34;29.00;99.90
45765;DHT22;31474;45.332;10.230;2023-09-12T09:41:03;29.10;99.90
45765;DHT22;31474;45.332;10.230;2023-09-12T09:43:31;29.10;99.70
45765;DHT22;31474;45.332;10.230;2023-09-12T09:45:57;29.20;99.70
45765;DHT22;31474;45.332;10.230;2023-09-12T09:48:24;29.40;99.90
45765;DHT22;31474;45.332;10.230;2023-09-12T09:50:52;29.60;99.90
45765;DHT22;31474;45.332;10.230;2023-09-12T09:53:28;29.70;99.90
45765;DHT22;31474;45.332;10.230;2023-09-12T09:56:24;29.90;99.90
45765;DHT22;31474;45.332;10.230;2023-09-12T09:58:56;29.90;98.70
45765;DHT22;31474;45.332;10.230;2023-09-12T10:01:29;29.90;99.10
45765;DHT22;31474;45.332;10.230;2023-09-12T10:04:00;30.00;99.00
45765;DHT22;31474;45.332;10.230;2023-09-12T10:06:27;29.90;98.40
45765;DHT22;31474;45.332;10.230;2023-09-12T10:08:54;29.90;99.00
45765;DHT22;31474;45.332;10.230;2023-09-12T10:11:24;29.90;98.70
45765;DHT22;31474;45.332;10.230;2023-09-12T10:13:53;29.90;98.60
45765;DHT22;31474;45.332;10.230;2023-09-12T10:16:32;30.00;98.80
45765;DHT22;31474;45.332;10.230;2023-09-12T10:19:11;30.00;98.50
45765;DHT22;31474;45.332;10.230;2023-09-12T10:21:52;30.20;98.40
45765;DHT22;31474;45.332;10.230;2023-09-12T10:24:21;30.20;98.60
45765;DHT22;31474;45.332;10.230;2023-09-12T10:26:50;30.30;98.40
45765;DHT22;31474;45.332;10.230;2023-09-12T10:29:16;30.20;98.10
45765;DHT22;31474;45.332;10.230;2023-09-12T10:31:42;30.10;98.40
45765;DHT22;31474;45.332;10.230;2023-09-12T10:34:08;30.00;98.50
45765;DHT22;31474;45.332;10.230;2023-09-12T10:36:40;30.00;98.60
45765;DHT22;31474;45.332;10.230;2023-09-12T10:39:07;30.00;98.40
45765;DHT22;31474;45.332;10.230;2023-09-12T10:41:37;30.20;98.70
45765;DHT22;31474;45.332;10.230;2023-09-12T10:44:09;30.30;98.70
45765;DHT22;31474;45.332;10.230;2023-09-12T10:46:39;30.30;98.40
45765;DHT22;31474;45.332;10.230;2023-09-12T10:49:09;30.40;98.10
45765;DHT22;31474;45.332;10.230;2023-09-12T10:51:45;30.40;97.90
45765;DHT22;31474;45.332;10.230;2023-09-12T10:54:15;30.30;97.90
45765;DHT22;31474;45.332;10.230;2023-09-12T10:56:41;30.30;98.60
45765;DHT22;31474;45.332;10.230;2023-09-12T10:59:10;30.50;99.00
45765;DHT22;31474;45.332;10.230;2023-09-12T11:01:39;30.60;98.60
45765;DHT22;31474;45.332;10.230;2023-09-12T11:06:46;30.50;98.00
45765;DHT22;31474;45.332;10.230;2023-09-12T11:12:04;30.70;98.20
45765;DHT22;31474;45.332;10.230;2023-09-12T11:14:31;30.70;98.50
45765;DHT22;31474;45.332;10.230;2023-09-12T11:17:21;30.80;98.30
45765;DHT22;31474;45.332;10.230;2023-09-12T11:19:49;30.90;97.90
45765;DHT22;31474;45.332;10.230;2023-09-12T11:22:30;30.80;97.10
45765;DHT22;31474;45.332;10.230;2023-09-12T11:25:03;30.70;96.50
45765;DHT22;31474;45.332;10.230;2023-09-12T11:30:21;30.80;97.90
45765;DHT22;31474;45.332;10.230;2023-09-12T11:32:51;30.70;96.50
45765;DHT22;31474;45.332;10.230;2023-09-12T11:35:23;30.70;97.90
45765;DHT22;31474;45.332;10.230;2023-09-12T11:37:50;30.90;97.80
45765;DHT22;31474;45.332;10.230;2023-09-12T11:40:24;31.10;97.60
45765;DHT22;31474;45.332;10.230;2023-09-12T11:42:50;31.20;96.10
45765;DHT22;31474;45.332;10.230;2023-09-12T11:45:21;31.20;97.10
45765;DHT22;31474;45.332;10.230;2023-09-12T11:47:47;31.20;96.10
45765;DHT22;31474;45.332;10.230;2023-09-12T11:50:29;31.30;96.90
45765;DHT22;31474;45.332;10.230;2023-09-12T11:55:25;31.40;96.40
45765;DHT22;31474;45.332;10.230;2023-09-12T11:57:51;31.40;97.00
45765;DHT22;31474;45.332;10.230;2023-09-12T12:00:18;31.40;97.20
45765;DHT22;31474;45.332;10.230;2023-09-12T12:02:45;31.40;96.50
45765;DHT22;31474;45.332;10.230;2023-09-12T12:05:12;31.40;96.50
45765;DHT22;31474;45.332;10.230;2023-09-12T12:07:38;31.40;97.00
45765;DHT22;31474;45.332;10.230;2023-09-12T12:10:04;31.40;97.00
45765;DHT22;31474;45.332;10.230;2023-09-12T12:12:30;31.40;97.10
45765;DHT22;31474;45.332;10.230;2023-09-12T12:14:56;31.50;96.80
45765;DHT22;31474;45.332;10.230;2023-09-12T12:17:21;31.40;96.20
45765;DHT22;31474;45.332;10.230;2023-09-12T12:19:48;31.50;95.60
45765;DHT22;31474;45.332;10.230;2023-09-12T12:22:13;31.40;95.20
45765;DHT22;31474;45.332;10.230;2023-09-12T12:24:49;31.40;95.60
45765;DHT22;31474;45.332;10.230;2023-09-12T12:27:16;31.40;95.50
45765;DHT22;31474;45.332;10.230;2023-09-12T12:29:42;31.50;96.40
45765;DHT22;31474;45.332;10.230;2023-09-12T12:32:10;31.50;96.30
45765;DHT22;31474;45.332;10.230;2023-09-12T12:34:36;31.50;95.70
45765;DHT22;31474;45.332;10.230;2023-09-12T12:37:02;31.50;95.50
45765;DHT22;31474;45.332;10.230;2023-09-12T12:39:28;31.40;95.80
45765;DHT22;31474;45.332;10.230;2023-09-12T12:41:54;31.50;96.40
45765;DHT22;31474;45.332;10.230;2023-09-12T12:44:21;31.60;95.50
45765;DHT22;31474;45.332;10.230;2023-09-12T12:46:54;31.60;95.40
45765;DHT22;31474;45.332;10.230;2023-09-12T12:49:21;31.60;94.00
45765;DHT22;31474;45.332;10.230;2023-09-12T12:51:47;31.60;95.50
45765;DHT22;31474;45.332;10.230;2023-09-12T12:54:14;31.50;95.80
45765;DHT22;31474;45.332;10.230;2023-09-12T12:56:40;31.60;95.40
45765;DHT22;31474;45.332;10.230;2023-09-12T12:59:07;31.60;95.20
45765;DHT22;31474;45.332;10.230;2023-09-12T13:01:38;31.70;95.70
45765;DHT22;31474;45.332;10.230;2023-09-12T13:04:07;31.70;94.40
45765;DHT22;31474;45.332;10.230;2023-09-12T13:06:33;31.70;94.90
45765;DHT22;31474;45.332;10.230;2023-09-12T13:09:01;31.60;95.00
45765;DHT22;31474;45.332;10.230;2023-09-12T13:11:30;31.70;94.70
45765;DHT22;31474;45.332;10.230;2023-09-12T13:13:55;31.60;94.80
45765;DHT22;31474;45.332;10.230;2023-09-12T13:16:22;31.60;94.10
45765;DHT22;31474;45.332;10.230;2023-09-12T13:18:47;31.50;94.90
45765;DHT22;31474;45.332;10.230;2023-09-12T13:21:13;31.50;94.00
45765;DHT22;31474;45.332;10.230;2023-09-12T13:23:39;31.50;94.90
45765;DHT22;31474;45.332;10.230;2023-09-12T13:26:07;31.50;94.70
45765;DHT22;31474;45.332;10.230;2023-09-12T13:28:33;31.50;94.40
45765;DHT22;31474;45.332;10.230;2023-09-12T13:30:58;31.50;94.40
45765;DHT22;31474;45.332;10.230;2023-09-12T13:33:24;31.50;94.40
45765;DHT22;31474;45.332;10.230;2023-09-12T13:35:50;31.50;95.00
45765;DHT22;31474;45.332;10.230;2023-09-12T13:38:17;31.50;94.40
45765;DHT22;31474;45.332;10.230;2023-09-12T13:40:45;31.50;94.20
45765;DHT22;31474;45.332;10.230;2023-09-12T13:43:11;31.50;94.50
45765;DHT22;31474;45.332;10.230;2023-09-12T13:45:37;31.50;94.50
45765;DHT22;31474;45.332;10.230;2023-09-12T13:48:03;31.40;94.40
45765;DHT22;31474;45.332;10.230;2023-09-12T13:50:30;31.40;94.70
45765;DHT22;31474;45.332;10.230;2023-09-12T13:53:00;31.40;94.60
45765;DHT22;31474;45.332;10.230;2023-09-12T13:55:29;31.40;94.70
45765;DHT22;31474;45.332;10.230;2023-09-12T13:57:55;31.50;94.80
45765;DHT22;31474;45.332;10.230;2023-09-12T14:00:21;31.50;94.60
45765;DHT22;31474;45.332;10.230;2023-09-12T14:02:46;31.40;94.80
45765;DHT22;31474;45.332;10.230;2023-09-12T14:05:12;31.40;94.70
45765;DHT22;31474;45.332;10.230;2023-09-12T14:07:38;31.40;94.40
45765;DHT22;31474;45.332;10.230;2023-09-12T14:10:06;31.40;94.60
45765;DHT22;31474;45.332;10.230;2023-09-12T14:12:32;31.40;94.50
45765;DHT22;31474;45.332;10.230;2023-09-12T14:14:58;31.40;94.50
45765;DHT22;31474;45.332;10.230;2023-09-12T14:17:23;31.30;94.20
45765;DHT22;31474;45.332;10.230;2023-09-12T14:19:49;31.30;94.70
45765;DHT22;31474;45.332;10.230;2023-09-12T14:22:14;31.30;94.50
45765;DHT22;31474;45.332;10.230;2023-09-12T14:24:41;31.20;93.90
45765;DHT22;31474;45.332;10.230;2023-09-12T14:27:06;31.20;94.00
45765;DHT22;31474;45.332;10.230;2023-09-12T14:29:32;31.20;94.20
45765;DHT22;31474;45.332;10.230;2023-09-12T14:31:57;31.20;93.90
45765;DHT22;31474;45.332;10.230;2023-09-12T14:34:26;31.20;94.80
45765;DHT22;31474;45.332;10.230;2023-09-12T14:36:56;31.20;94.50
45765;DHT22;31474;45.332;10.230;2023-09-12T14:39:23;31.20;94.40
45765;DHT22;31474;45.332;10.230;2023-09-12T14:41:49;31.20;94.30
45765;DHT22;31474;45.332;10.230;2023-09-12T14:44:21;31.20;94.50
45765;DHT22;31474;45.332;10.230;2023-09-12T14:46:47;31.20;94.10
45765;DHT22;31474;45.332;10.230;2023-09-12T14:49:13;31.20;94.30
45765;DHT22;31474;45.332;10.230;2023-09-12T14:51:39;31.20;94.10
45765;DHT22;31474;45.332;10.230;2023-09-12T14:54:05;31.20;93.70
45765;DHT22;31474;45.332;10.230;2023-09-12T14:56:32;31.20;93.80
45765;DHT22;31474;45.332;10.230;2023-09-12T14:58:58;31.10;94.30
45765;DHT22;31474;45.332;10.230;2023-09-12T15:01:24;31.10;94.10
45765;DHT22;31474;45.332;10.230;2023-09-12T15:03:52;31.10;94.00
45765;DHT22;31474;45.332;10.230;2023-09-12T15:06:19;31.10;93.70
45765;DHT22;31474;45.332;10.230;2023-09-12T15:08:44;31.00;93.90
45765;DHT22;31474;45.332;10.230;2023-09-12T15:11:10;30.90;94.00
45765;DHT22;31474;45.332;10.230;2023-09-12T15:13:36;30.90;94.30
45765;DHT22;31474;45.332;10.230;2023-09-12T15:16:03;30.80;94.10
45765;DHT22;31474;45.332;10.230;2023-09-12T15:18:29;30.80;93.90
45765;DHT22;31474;45.332;10.230;2023-09-12T15:20:54;30.80;94.20
45765;DHT22;31474;45.332;10.230;2023-09-12T15:23:20;30.90;94.10
45765;DHT22;31474;45.332;10.230;2023-09-12T15:25:48;30.80;94.00
45765;DHT22;31474;45.332;10.230;2023-09-12T15:28:14;30.80;93.90
45765;DHT22;31474;45.332;10.230;2023-09-12T15:30:40;30.70;93.70
45765;DHT22;31474;45.332;10.230;2023-09-12T15:33:06;30.60;93.60